sensor_id;sensor_type;location;lat;lon;timestamp;P1;durP1;ratioP1;P2;durP2;ratioP2
46675;SDS011;32412;51.478;5.694;2023-07-30T00:01:24;9.50;;;2.67;;
46675;SDS011;32412;51.478;5.694;2023-07-30T00:03:50;6.13;;;3.38;;
46675;SDS011;32412;51.478;5.694;2023-07-30T00:06:15;10.75;;;2.70;;
46675;SDS011;32412;51.478;5.694;2023-07-30T00:08:41;9.48;;;2.80;;
46675;SDS011;32412;51.478;5.694;2023-07-30T00:11:07;23.83;;;3.33;;
46675;SDS011;32412;51.478;5.694;2023-07-30T00:13:32;5.20;;;2.80;;
46675;SDS011;32412;51.478;5.694;2023-07-30T00:15:58;7.47;;;2.65;;
46675;SDS011;32412;51.478;5.694;2023-07-30T00:18:23;7.68;;;2.85;;
46675;SDS011;32412;51.478;5.694;2023-07-30T00:20:49;9.55;;;2.75;;
46675;SDS011;32412;51.478;5.694;2023-07-30T00:23:15;11.73;;;3.00;;
46675;SDS011;32412;51.478;5.694;2023-07-30T00:25:40;6.95;;;3.00;;
46675;SDS011;32412;51.478;5.694;2023-07-30T00:28:06;7.00;;;2.90;;
46675;SDS011;32412;51.478;5.694;2023-07-30T00:30:31;8.93;;;2.85;;
46675;SDS011;32412;51.478;5.694;2023-07-30T00:32:57;4.68;;;2.70;;
46675;SDS011;32412;51.478;5.694;2023-07-30T00:35:23;5.20;;;2.50;;
46675;SDS011;32412;51.478;5.694;2023-07-30T00:37:48;10.15;;;2.95;;
46675;SDS011;32412;51.478;5.694;2023-07-30T00:40:14;6.65;;;2.67;;
46675;SDS011;32412;51.478;5.694;2023-07-30T00:42:40;7.47;;;2.85;;
46675;SDS011;32412;51.478;5.694;2023-07-30T00:45:05;10.82;;;3.25;;
46675;SDS011;32412;51.478;5.694;2023-07-30T00:47:31;8.07;;;3.25;;
46675;SDS011;32412;51.478;5.694;2023-07-30T00:49:57;9.43;;;3.10;;
46675;SDS011;32412;51.478;5.694;2023-07-30T00:52:24;10.20;;;3.10;;
46675;SDS011;32412;51.478;5.694;2023-07-30T00:54:51;8.13;;;3.28;;
46675;SDS011;32412;51.478;5.694;2023-07-30T00:57:18;9.75;;;2.92;;
46675;SDS011;32412;51.478;5.694;2023-07-30T00:59:44;7.22;;;3.25;;
46675;SDS011;32412;51.478;5.694;2023-07-30T01:02:11;9.07;;;2.80;;
46675;SDS011;32412;51.478;5.694;2023-07-30T01:04:37;6.25;;;3.20;;
46675;SDS011;32412;51.478;5.694;2023-07-30T01:07:04;10.18;;;3.20;;
46675;SDS011;32412;51.478;5.694;2023-07-30T01:09:31;8.07;;;3.33;;
46675;SDS011;32412;51.478;5.694;2023-07-30T01:11:56;7.63;;;3.30;;
46675;SDS011;32412;51.478;5.694;2023-07-30T01:14:24;6.28;;;2.95;;
46675;SDS011;32412;51.478;5.694;2023-07-30T01:16:51;8.43;;;3.25;;
46675;SDS011;32412;51.478;5.694;2023-07-30T01:19:17;7.07;;;2.97;;
46675;SDS011;32412;51.478;5.694;2023-07-30T01:21:43;6.93;;;3.15;;
46675;SDS011;32412;51.478;5.694;2023-07-30T01:24:09;8.43;;;3.60;;
46675;SDS011;32412;51.478;5.694;2023-07-30T01:26:37;12.05;;;3.15;;
46675;SDS011;32412;51.478;5.694;2023-07-30T01:29:12;8.65;;;2.75;;
46675;SDS011;32412;51.478;5.694;2023-07-30T01:31:44;8.68;;;3.28;;
46675;SDS011;32412;51.478;5.694;2023-07-30T01:34:17;6.25;;;2.70;;
46675;SDS011;32412;51.478;5.694;2023-07-30T01:36:44;9.05;;;2.90;;
46675;SDS011;32412;51.478;5.694;2023-07-30T01:39:10;9.73;;;3.45;;
46675;SDS011;32412;51.478;5.694;2023-07-30T01:41:36;10.93;;;3.03;;
46675;SDS011;32412;51.478;5.694;2023-07-30T01:44:02;9.38;;;3.30;;
46675;SDS011;32412;51.478;5.694;2023-07-30T01:46:28;10.13;;;3.20;;
46675;SDS011;32412;51.478;5.694;2023-07-30T01:48:53;10.35;;;3.25;;
46675;SDS011;32412;51.478;5.694;2023-07-30T01:51:19;10.00;;;3.50;;
46675;SDS011;32412;51.478;5.694;2023-07-30T01:53:45;6.32;;;2.67;;
46675;SDS011;32412;51.478;5.694;2023-07-30T01:56:10;12.20;;;3.28;;
46675;SDS011;32412;51.478;5.694;2023-07-30T01:58:36;7.47;;;3.42;;
46675;SDS011;32412;51.478;5.694;2023-07-30T02:01:01;9.07;;;3.50;;
46675;SDS011;32412;51.478;5.694;2023-07-30T02:03:27;11.00;;;3.05;;
46675;SDS011;32412;51.478;5.694;2023-07-30T02:05:53;11.00;;;3.15;;
46675;SDS011;32412;51.478;5.694;2023-07-30T02:08:18;10.85;;;3.05;;
46675;SDS011;32412;51.478;5.694;2023-07-30T02:10:44;12.30;;;3.38;;
46675;SDS011;32412;51.478;5.694;2023-07-30T02:13:18;6.28;;;2.88;;
46675;SDS011;32412;51.478;5.694;2023-07-30T02:15:44;11.38;;;3.33;;
46675;SDS011;32412;51.478;5.694;2023-07-30T02:18:10;10.38;;;2.75;;
46675;SDS011;32412;51.478;5.694;2023-07-30T02:20:35;14.25;;;3.15;;
46675;SDS011;32412;51.478;5.694;2023-07-30T02:23:01;10.50;;;2.83;;
46675;SDS011;32412;51.478;5.694;2023-07-30T02:25:27;9.05;;;3.15;;
46675;SDS011;32412;51.478;5.694;2023-07-30T02:27:53;7.85;;;2.50;;
46675;SDS011;32412;51.478;5.694;2023-07-30T02:30:19;13.77;;;3.55;;
46675;SDS011;32412;51.478;5.694;2023-07-30T02:32:44;8.85;;;3.20;;
46675;SDS011;32412;51.478;5.694;2023-07-30T02:35:10;11.52;;;2.92;;
46675;SDS011;32412;51.478;5.694;2023-07-30T02:37:35;12.75;;;2.88;;
46675;SDS011;32412;51.478;5.694;2023-07-30T02:40:01;14.55;;;3.38;;
46675;SDS011;32412;51.478;5.694;2023-07-30T02:42:29;11.45;;;3.67;;
46675;SDS011;32412;51.478;5.694;2023-07-30T02:44:56;14.63;;;3.00;;
46675;SDS011;32412;51.478;5.694;2023-07-30T02:47:21;11.35;;;3.30;;
46675;SDS011;32412;51.478;5.694;2023-07-30T02:49:47;9.00;;;3.22;;
46675;SDS011;32412;51.478;5.694;2023-07-30T02:52:13;9.52;;;3.13;;
46675;SDS011;32412;51.478;5.694;2023-07-30T02:54:38;9.90;;;3.08;;
46675;SDS011;32412;51.478;5.694;2023-07-30T02:57:04;14.68;;;3.10;;
46675;SDS011;32412;51.478;5.694;2023-07-30T02:59:30;10.82;;;2.80;;
46675;SDS011;32412;51.478;5.694;2023-07-30T03:01:55;10.68;;;3.20;;
46675;SDS011;32412;51.478;5.694;2023-07-30T03:04:21;8.75;;;3.20;;
46675;SDS011;32412;51.478;5.694;2023-07-30T03:06:47;12.75;;;3.22;;
46675;SDS011;32412;51.478;5.694;2023-07-30T03:09:12;12.38;;;3.30;;
46675;SDS011;32412;51.478;5.694;2023-07-30T03:11:38;10.35;;;3.40;;
46675;SDS011;32412;51.478;5.694;2023-07-30T03:14:03;11.52;;;3.50;;
46675;SDS011;32412;51.478;5.694;2023-07-30T03:16:29;10.63;;;2.80;;
46675;SDS011;32412;51.478;5.694;2023-07-30T03:18:55;12.50;;;2.88;;
46675;SDS011;32412;51.478;5.694;2023-07-30T03:21:20;13.40;;;3.38;;
46675;SDS011;32412;51.478;5.694;2023-07-30T03:23:46;11.95;;;3.40;;
46675;SDS011;32412;51.478;5.694;2023-07-30T03:26:13;10.13;;;3.67;;
46675;SDS011;32412;51.478;5.694;2023-07-30T03:28:38;14.23;;;3.65;;
46675;SDS011;32412;51.478;5.694;2023-07-30T03:31:04;14.57;;;4.20;;
46675;SDS011;32412;51.478;5.694;2023-07-30T03:33:30;13.27;;;3.45;;
46675;SDS011;32412;51.478;5.694;2023-07-30T03:35:56;14.05;;;3.53;;
46675;SDS011;32412;51.478;5.694;2023-07-30T03:38:22;14.30;;;3.33;;
46675;SDS011;32412;51.478;5.694;2023-07-30T03:40:47;12.48;;;3.63;;
46675;SDS011;32412;51.478;5.694;2023-07-30T03:43:13;12.95;;;3.55;;
46675;SDS011;32412;51.478;5.694;2023-07-30T03:45:38;11.30;;;3.58;;
46675;SDS011;32412;51.478;5.694;2023-07-30T03:48:04;13.68;;;3.40;;
46675;SDS011;32412;51.478;5.694;2023-07-30T03:50:30;12.27;;;3.28;;
46675;SDS011;32412;51.478;5.694;2023-07-30T03:52:55;12.70;;;3.42;;
46675;SDS011;32412;51.478;5.694;2023-07-30T03:55:22;9.82;;;3.00;;
46675;SDS011;32412;51.478;5.694;2023-07-30T03:57:49;10.32;;;2.75;;
46675;SDS011;32412;51.478;5.694;2023-07-30T04:00:15;13.15;;;3.22;;
46675;SDS011;32412;51.478;5.694;2023-07-30T04:02:40;13.52;;;3.35;;
46675;SDS011;32412;51.478;5.694;2023-07-30T04:05:06;9.52;;;3.03;;
46675;SDS011;32412;51.478;5.694;2023-07-30T04:07:32;10.20;;;3.25;;
46675;SDS011;32412;51.478;5.694;2023-07-30T04:09:57;10.88;;;2.88;;
46675;SDS011;32412;51.478;5.694;2023-07-30T04:12:23;12.30;;;3.40;;
46675;SDS011;32412;51.478;5.694;2023-07-30T04:14:49;10.93;;;3.30;;
46675;SDS011;32412;51.478;5.694;2023-07-30T04:17:14;9.52;;;3.20;;
46675;SDS011;32412;51.478;5.694;2023-07-30T04:19:40;16.35;;;3.80;;
46675;SDS011;32412;51.478;5.694;2023-07-30T04:22:05;7.88;;;3.70;;
46675;SDS011;32412;51.478;5.694;2023-07-30T04:24:31;17.10;;;4.82;;
46675;SDS011;32412;51.478;5.694;2023-07-30T04:26:57;14.32;;;4.13;;
46675;SDS011;32412;51.478;5.694;2023-07-30T04:29:22;16.98;;;5.05;;
46675;SDS011;32412;51.478;5.694;2023-07-30T04:31:48;15.27;;;5.05;;
46675;SDS011;32412;51.478;5.694;2023-07-30T04:34:13;17.10;;;5.10;;
46675;SDS011;32412;51.478;5.694;2023-07-30T04:36:40;16.60;;;5.10;;
46675;SDS011;32412;51.478;5.694;2023-07-30T04:39:05;20.02;;;5.22;;
46675;SDS011;32412;51.478;5.694;2023-07-30T04:41:31;14.98;;;5.90;;
46675;SDS011;32412;51.478;5.694;2023-07-30T04:43:56;17.55;;;5.63;;
46675;SDS011;32412;51.478;5.694;2023-07-30T04:46:22;17.70;;;5.50;;
46675;SDS011;32412;51.478;5.694;2023-07-30T04:48:48;19.35;;;6.10;;
46675;SDS011;32412;51.478;5.694;2023-07-30T04:51:13;20.92;;;5.95;;
46675;SDS011;32412;51.478;5.694;2023-07-30T04:53:39;15.30;;;5.38;;
46675;SDS011;32412;51.478;5.694;2023-07-30T04:56:04;19.92;;;6.28;;
46675;SDS011;32412;51.478;5.694;2023-07-30T04:58:30;14.70;;;6.30;;
46675;SDS011;32412;51.478;5.694;2023-07-30T05:00:56;17.73;;;6.22;;
46675;SDS011;32412;51.478;5.694;2023-07-30T05:03:21;17.05;;;5.43;;
46675;SDS011;32412;51.478;5.694;2023-07-30T05:05:47;20.50;;;6.05;;
46675;SDS011;32412;51.478;5.694;2023-07-30T05:08:12;17.35;;;5.85;;
46675;SDS011;32412;51.478;5.694;2023-07-30T05:10:38;17.33;;;5.68;;
46675;SDS011;32412;51.478;5.694;2023-07-30T05:13:04;24.23;;;5.85;;
46675;SDS011;32412;51.478;5.694;2023-07-30T05:15:29;18.95;;;5.60;;
46675;SDS011;32412;51.478;5.694;2023-07-30T05:17:55;15.13;;;5.20;;
46675;SDS011;32412;51.478;5.694;2023-07-30T05:20:21;18.55;;;6.05;;
46675;SDS011;32412;51.478;5.694;2023-07-30T05:22:46;21.17;;;5.55;;
46675;SDS011;32412;51.478;5.694;2023-07-30T05:25:12;12.65;;;4.53;;
46675;SDS011;32412;51.478;5.694;2023-07-30T05:27:37;17.88;;;5.28;;
46675;SDS011;32412;51.478;5.694;2023-07-30T05:30:03;15.80;;;5.45;;
46675;SDS011;32412;51.478;5.694;2023-07-30T05:32:29;13.98;;;5.47;;
46675;SDS011;32412;51.478;5.694;2023-07-30T05:34:55;16.98;;;5.60;;
46675;SDS011;32412;51.478;5.694;2023-07-30T05:37:20;16.95;;;5.15;;
46675;SDS011;32412;51.478;5.694;2023-07-30T05:39:46;16.88;;;5.32;;
46675;SDS011;32412;51.478;5.694;2023-07-30T05:42:12;18.25;;;4.43;;
46675;SDS011;32412;51.478;5.694;2023-07-30T05:44:37;14.30;;;4.30;;
46675;SDS011;32412;51.478;5.694;2023-07-30T05:47:03;16.15;;;4.30;;
46675;SDS011;32412;51.478;5.694;2023-07-30T05:49:28;16.60;;;4.20;;
46675;SDS011;32412;51.478;5.694;2023-07-30T05:51:54;20.35;;;4.90;;
46675;SDS011;32412;51.478;5.694;2023-07-30T05:54:20;13.70;;;4.38;;
46675;SDS011;32412;51.478;5.694;2023-07-30T05:56:45;17.83;;;4.68;;
46675;SDS011;32412;51.478;5.694;2023-07-30T05:59:11;16.08;;;4.82;;
46675;SDS011;32412;51.478;5.694;2023-07-30T06:01:37;18.83;;;4.65;;
46675;SDS011;32412;51.478;5.694;2023-07-30T06:04:02;17.17;;;4.13;;
46675;SDS011;32412;51.478;5.694;2023-07-30T06:06:28;17.65;;;4.40;;
46675;SDS011;32412;51.478;5.694;2023-07-30T06:08:54;12.68;;;4.53;;
46675;SDS011;32412;51.478;5.694;2023-07-30T06:11:23;22.48;;;4.55;;
46675;SDS011;32412;51.478;5.694;2023-07-30T06:13:48;18.33;;;4.32;;
46675;SDS011;32412;51.478;5.694;2023-07-30T06:16:14;19.23;;;5.25;;
46675;SDS011;32412;51.478;5.694;2023-07-30T06:18:40;19.17;;;4.10;;
46675;SDS011;32412;51.478;5.694;2023-07-30T06:21:05;13.25;;;4.13;;
46675;SDS011;32412;51.478;5.694;2023-07-30T06:23:31;15.00;;;4.22;;
46675;SDS011;32412;51.478;5.694;2023-07-30T06:25:57;17.75;;;4.05;;
46675;SDS011;32412;51.478;5.694;2023-07-30T06:28:22;16.92;;;3.88;;
46675;SDS011;32412;51.478;5.694;2023-07-30T06:30:48;21.20;;;5.57;;
46675;SDS011;32412;51.478;5.694;2023-07-30T06:33:14;15.18;;;4.45;;
46675;SDS011;32412;51.478;5.694;2023-07-30T06:35:40;18.60;;;5.13;;
46675;SDS011;32412;51.478;5.694;2023-07-30T06:38:07;18.92;;;4.53;;
46675;SDS011;32412;51.478;5.694;2023-07-30T06:40:33;25.92;;;5.20;;
46675;SDS011;32412;51.478;5.694;2023-07-30T06:42:59;13.85;;;4.80;;
46675;SDS011;32412;51.478;5.694;2023-07-30T06:45:25;18.77;;;4.97;;
46675;SDS011;32412;51.478;5.694;2023-07-30T06:47:51;14.73;;;4.82;;
46675;SDS011;32412;51.478;5.694;2023-07-30T06:50:16;19.90;;;5.00;;
46675;SDS011;32412;51.478;5.694;2023-07-30T06:52:42;18.85;;;4.78;;
46675;SDS011;32412;51.478;5.694;2023-07-30T06:55:08;16.42;;;4.53;;
46675;SDS011;32412;51.478;5.694;2023-07-30T06:57:33;19.33;;;4.50;;
46675;SDS011;32412;51.478;5.694;2023-07-30T06:59:59;15.80;;;4.45;;
46675;SDS011;32412;51.478;5.694;2023-07-30T07:02:25;17.85;;;4.78;;
46675;SDS011;32412;51.478;5.694;2023-07-30T07:04:51;20.02;;;4.35;;
46675;SDS011;32412;51.478;5.694;2023-07-30T07:07:19;19.80;;;4.45;;
46675;SDS011;32412;51.478;5.694;2023-07-30T07:09:45;14.38;;;4.47;;
46675;SDS011;32412;51.478;5.694;2023-07-30T07:12:11;18.05;;;3.65;;
46675;SDS011;32412;51.478;5.694;2023-07-30T07:14:37;16.13;;;3.60;;
46675;SDS011;32412;51.478;5.694;2023-07-30T07:17:04;17.17;;;3.83;;
46675;SDS011;32412;51.478;5.694;2023-07-30T07:19:29;16.77;;;3.90;;
46675;SDS011;32412;51.478;5.694;2023-07-30T07:21:56;11.52;;;3.22;;
46675;SDS011;32412;51.478;5.694;2023-07-30T07:24:21;19.98;;;3.97;;
46675;SDS011;32412;51.478;5.694;2023-07-30T07:26:47;15.10;;;3.22;;
46675;SDS011;32412;51.478;5.694;2023-07-30T07:29:13;18.67;;;3.83;;
46675;SDS011;32412;51.478;5.694;2023-07-30T07:31:38;20.90;;;3.22;;
46675;SDS011;32412;51.478;5.694;2023-07-30T07:34:04;22.30;;;4.15;;
46675;SDS011;32412;51.478;5.694;2023-07-30T07:36:29;15.68;;;3.85;;
46675;SDS011;32412;51.478;5.694;2023-07-30T07:38:55;14.25;;;3.20;;
46675;SDS011;32412;51.478;5.694;2023-07-30T07:41:21;15.93;;;3.08;;
46675;SDS011;32412;51.478;5.694;2023-07-30T07:43:47;16.83;;;4.10;;
46675;SDS011;32412;51.478;5.694;2023-07-30T07:46:13;19.45;;;4.30;;
46675;SDS011;32412;51.478;5.694;2023-07-30T07:48:39;16.73;;;3.50;;
46675;SDS011;32412;51.478;5.694;2023-07-30T07:51:05;20.17;;;3.30;;
46675;SDS011;32412;51.478;5.694;2023-07-30T07:53:31;13.00;;;2.80;;
46675;SDS011;32412;51.478;5.694;2023-07-30T07:55:57;16.15;;;3.25;;
46675;SDS011;32412;51.478;5.694;2023-07-30T07:58:23;17.67;;;3.15;;
46675;SDS011;32412;51.478;5.694;2023-07-30T08:00:48;16.10;;;2.58;;
46675;SDS011;32412;51.478;5.694;2023-07-30T08:03:14;10.77;;;2.60;;
46675;SDS011;32412;51.478;5.694;2023-07-30T08:05:39;15.23;;;3.00;;
46675;SDS011;32412;51.478;5.694;2023-07-30T08:08:05;20.05;;;2.92;;
46675;SDS011;32412;51.478;5.694;2023-07-30T08:10:31;15.45;;;3.17;;
46675;SDS011;32412;51.478;5.694;2023-07-30T08:12:57;12.38;;;2.72;;
46675;SDS011;32412;51.478;5.694;2023-07-30T08:15:22;13.30;;;2.92;;
46675;SDS011;32412;51.478;5.694;2023-07-30T08:17:48;9.00;;;1.95;;
46675;SDS011;32412;51.478;5.694;2023-07-30T08:20:14;12.38;;;3.30;;
46675;SDS011;32412;51.478;5.694;2023-07-30T08:22:39;15.45;;;2.85;;
46675;SDS011;32412;51.478;5.694;2023-07-30T08:25:05;14.45;;;2.95;;
46675;SDS011;32412;51.478;5.694;2023-07-30T08:27:31;16.75;;;2.85;;
46675;SDS011;32412;51.478;5.694;2023-07-30T08:29:57;16.63;;;2.90;;
46675;SDS011;32412;51.478;5.694;2023-07-30T08:32:22;14.00;;;3.38;;
46675;SDS011;32412;51.478;5.694;2023-07-30T08:34:48;13.55;;;2.47;;
46675;SDS011;32412;51.478;5.694;2023-07-30T08:37:13;12.45;;;2.88;;
46675;SDS011;32412;51.478;5.694;2023-07-30T08:39:39;12.90;;;3.33;;
46675;SDS011;32412;51.478;5.694;2023-07-30T08:42:05;15.48;;;2.50;;
46675;SDS011;32412;51.478;5.694;2023-07-30T08:44:30;14.10;;;2.67;;
46675;SDS011;32412;51.478;5.694;2023-07-30T08:46:57;14.65;;;2.63;;
46675;SDS011;32412;51.478;5.694;2023-07-30T08:49:22;11.30;;;2.40;;
46675;SDS011;32412;51.478;5.694;2023-07-30T08:51:48;11.18;;;2.88;;
46675;SDS011;32412;51.478;5.694;2023-07-30T08:54:18;9.30;;;2.55;;
46675;SDS011;32412;51.478;5.694;2023-07-30T08:56:45;11.68;;;2.85;;
46675;SDS011;32412;51.478;5.694;2023-07-30T08:59:12;16.58;;;2.53;;
46675;SDS011;32412;51.478;5.694;2023-07-30T09:01:39;15.10;;;2.70;;
46675;SDS011;32412;51.478;5.694;2023-07-30T09:04:07;14.65;;;2.67;;
46675;SDS011;32412;51.478;5.694;2023-07-30T09:06:33;10.32;;;2.55;;
46675;SDS011;32412;51.478;5.694;2023-07-30T09:08:59;14.68;;;2.25;;
46675;SDS011;32412;51.478;5.694;2023-07-30T09:11:25;11.48;;;2.60;;
46675;SDS011;32412;51.478;5.694;2023-07-30T09:13:53;11.18;;;2.83;;
46675;SDS011;32412;51.478;5.694;2023-07-30T09:16:23;15.18;;;3.40;;
46675;SDS011;32412;51.478;5.694;2023-07-30T09:18:50;9.55;;;2.22;;
46675;SDS011;32412;51.478;5.694;2023-07-30T09:21:18;11.55;;;2.03;;
46675;SDS011;32412;51.478;5.694;2023-07-30T09:23:44;12.27;;;2.38;;
46675;SDS011;32412;51.478;5.694;2023-07-30T09:26:11;11.38;;;2.42;;
46675;SDS011;32412;51.478;5.694;2023-07-30T09:28:37;15.93;;;2.60;;
46675;SDS011;32412;51.478;5.694;2023-07-30T09:31:05;8.77;;;1.90;;
46675;SDS011;32412;51.478;5.694;2023-07-30T09:33:32;10.63;;;2.42;;
46675;SDS011;32412;51.478;5.694;2023-07-30T09:36:02;9.50;;;2.80;;
46675;SDS011;32412;51.478;5.694;2023-07-30T09:38:28;8.77;;;2.30;;
46675;SDS011;32412;51.478;5.694;2023-07-30T09:41:02;12.27;;;2.92;;
46675;SDS011;32412;51.478;5.694;2023-07-30T09:43:28;11.32;;;2.20;;
46675;SDS011;32412;51.478;5.694;2023-07-30T09:46:00;12.35;;;1.70;;
46675;SDS011;32412;51.478;5.694;2023-07-30T09:48:30;13.27;;;1.75;;
46675;SDS011;32412;51.478;5.694;2023-07-30T09:50:58;7.20;;;1.83;;
46675;SDS011;32412;51.478;5.694;2023-07-30T09:53:25;8.48;;;1.92;;
46675;SDS011;32412;51.478;5.694;2023-07-30T09:55:53;11.90;;;2.00;;
46675;SDS011;32412;51.478;5.694;2023-07-30T09:58:19;8.88;;;1.98;;
46675;SDS011;32412;51.478;5.694;2023-07-30T10:00:45;9.38;;;1.98;;
46675;SDS011;32412;51.478;5.694;2023-07-30T10:03:12;8.23;;;1.95;;
46675;SDS011;32412;51.478;5.694;2023-07-30T10:05:40;8.43;;;1.65;;
46675;SDS011;32412;51.478;5.694;2023-07-30T10:08:09;7.43;;;1.70;;
46675;SDS011;32412;51.478;5.694;2023-07-30T10:10:38;8.60;;;1.83;;
46675;SDS011;32412;51.478;5.694;2023-07-30T10:13:05;3.67;;;1.25;;
46675;SDS011;32412;51.478;5.694;2023-07-30T10:15:33;7.07;;;2.30;;
46675;SDS011;32412;51.478;5.694;2023-07-30T10:18:00;6.90;;;1.63;;
46675;SDS011;32412;51.478;5.694;2023-07-30T10:20:27;7.30;;;2.08;;
46675;SDS011;32412;51.478;5.694;2023-07-30T10:22:55;6.32;;;1.63;;
46675;SDS011;32412;51.478;5.694;2023-07-30T10:25:23;12.07;;;2.15;;
46675;SDS011;32412;51.478;5.694;2023-07-30T10:28:31;6.35;;;1.85;;
46675;SDS011;32412;51.478;5.694;2023-07-30T10:30:58;9.77;;;2.13;;
46675;SDS011;32412;51.478;5.694;2023-07-30T10:33:27;7.82;;;1.60;;
46675;SDS011;32412;51.478;5.694;2023-07-30T10:36:16;8.30;;;1.63;;
46675;SDS011;32412;51.478;5.694;2023-07-30T10:39:14;6.75;;;1.30;;
46675;SDS011;32412;51.478;5.694;2023-07-30T10:41:49;6.82;;;1.58;;
46675;SDS011;32412;51.478;5.694;2023-07-30T10:44:19;9.23;;;2.05;;
46675;SDS011;32412;51.478;5.694;2023-07-30T10:46:55;5.10;;;1.25;;
46675;SDS011;32412;51.478;5.694;2023-07-30T10:49:21;8.27;;;1.85;;
46675;SDS011;32412;51.478;5.694;2023-07-30T10:51:47;4.85;;;1.38;;
46675;SDS011;32412;51.478;5.694;2023-07-30T10:54:13;5.70;;;1.60;;
46675;SDS011;32412;51.478;5.694;2023-07-30T10:56:41;7.43;;;1.33;;
46675;SDS011;32412;51.478;5.694;2023-07-30T10:59:07;6.65;;;1.63;;
46675;SDS011;32412;51.478;5.694;2023-07-30T11:01:37;5.43;;;1.20;;
46675;SDS011;32412;51.478;5.694;2023-07-30T11:04:11;5.40;;;1.60;;
46675;SDS011;32412;51.478;5.694;2023-07-30T11:06:50;15.18;;;2.92;;
46675;SDS011;32412;51.478;5.694;2023-07-30T11:11:54;6.57;;;1.05;;
46675;SDS011;32412;51.478;5.694;2023-07-30T11:14:21;6.78;;;1.35;;
46675;SDS011;32412;51.478;5.694;2023-07-30T11:16:51;4.68;;;1.10;;
46675;SDS011;32412;51.478;5.694;2023-07-30T11:19:21;4.07;;;1.20;;
46675;SDS011;32412;51.478;5.694;2023-07-30T11:21:47;5.30;;;1.15;;
46675;SDS011;32412;51.478;5.694;2023-07-30T11:24:14;6.05;;;1.38;;
46675;SDS011;32412;51.478;5.694;2023-07-30T11:26:40;5.80;;;1.40;;
46675;SDS011;32412;51.478;5.694;2023-07-30T11:29:25;3.53;;;1.10;;
46675;SDS011;32412;51.478;5.694;2023-07-30T11:31:50;2.05;;;0.82;;
46675;SDS011;32412;51.478;5.694;2023-07-30T11:34:16;5.55;;;1.35;;
46675;SDS011;32412;51.478;5.694;2023-07-30T11:36:43;4.00;;;1.10;;
46675;SDS011;32412;51.478;5.694;2023-07-30T11:39:10;5.55;;;1.38;;
46675;SDS011;32412;51.478;5.694;2023-07-30T11:41:36;6.93;;;1.70;;
46675;SDS011;32412;51.478;5.694;2023-07-30T11:44:02;4.25;;;1.33;;
46675;SDS011;32412;51.478;5.694;2023-07-30T11:46:29;4.28;;;1.50;;
46675;SDS011;32412;51.478;5.694;2023-07-30T11:49:11;6.22;;;1.52;;
46675;SDS011;32412;51.478;5.694;2023-07-30T11:51:46;3.58;;;1.08;;
46675;SDS011;32412;51.478;5.694;2023-07-30T11:54:19;5.28;;;1.48;;
46675;SDS011;32412;51.478;5.694;2023-07-30T11:56:47;5.45;;;1.17;;
46675;SDS011;32412;51.478;5.694;2023-07-30T11:59:19;5.32;;;1.38;;
46675;SDS011;32412;51.478;5.694;2023-07-30T12:01:46;5.43;;;1.25;;
46675;SDS011;32412;51.478;5.694;2023-07-30T12:04:12;5.40;;;1.20;;
46675;SDS011;32412;51.478;5.694;2023-07-30T12:09:09;6.32;;;1.38;;
46675;SDS011;32412;51.478;5.694;2023-07-30T12:14:25;4.50;;;1.38;;
46675;SDS011;32412;51.478;5.694;2023-07-30T12:17:07;4.15;;;1.67;;
46675;SDS011;32412;51.478;5.694;2023-07-30T12:19:32;3.78;;;1.50;;
46675;SDS011;32412;51.478;5.694;2023-07-30T12:21:58;4.13;;;1.20;;
46675;SDS011;32412;51.478;5.694;2023-07-30T12:24:24;4.43;;;1.30;;
46675;SDS011;32412;51.478;5.694;2023-07-30T12:26:49;3.67;;;1.20;;
46675;SDS011;32412;51.478;5.694;2023-07-30T12:29:15;5.95;;;1.52;;
46675;SDS011;32412;51.478;5.694;2023-07-30T12:31:40;7.47;;;1.85;;
46675;SDS011;32412;51.478;5.694;2023-07-30T12:34:06;4.30;;;1.02;;
46675;SDS011;32412;51.478;5.694;2023-07-30T12:36:32;3.85;;;1.08;;
46675;SDS011;32412;51.478;5.694;2023-07-30T12:38:57;5.40;;;1.10;;
46675;SDS011;32412;51.478;5.694;2023-07-30T12:41:23;3.65;;;1.15;;
46675;SDS011;32412;51.478;5.694;2023-07-30T12:43:54;4.65;;;1.10;;
46675;SDS011;32412;51.478;5.694;2023-07-30T12:46:24;6.22;;;1.15;;
46675;SDS011;32412;51.478;5.694;2023-07-30T12:48:54;5.03;;;0.80;;
46675;SDS011;32412;51.478;5.694;2023-07-30T12:51:29;5.03;;;1.17;;
46675;SDS011;32412;51.478;5.694;2023-07-30T12:53:55;5.75;;;1.55;;
46675;SDS011;32412;51.478;5.694;2023-07-30T12:56:21;3.90;;;1.50;;
46675;SDS011;32412;51.478;5.694;2023-07-30T12:58:47;6.10;;;1.80;;
46675;SDS011;32412;51.478;5.694;2023-07-30T13:01:13;5.80;;;1.20;;
46675;SDS011;32412;51.478;5.694;2023-07-30T13:03:39;3.35;;;1.30;;
46675;SDS011;32412;51.478;5.694;2023-07-30T13:06:09;6.07;;;1.30;;
46675;SDS011;32412;51.478;5.694;2023-07-30T13:08:36;5.82;;;1.38;;
46675;SDS011;32412;51.478;5.694;2023-07-30T13:11:01;3.17;;;1.23;;
46675;SDS011;32412;51.478;5.694;2023-07-30T13:13:27;4.40;;;1.38;;
46675;SDS011;32412;51.478;5.694;2023-07-30T13:15:52;3.30;;;1.13;;
46675;SDS011;32412;51.478;5.694;2023-07-30T13:18:22;6.05;;;1.02;;
46675;SDS011;32412;51.478;5.694;2023-07-30T13:20:48;3.95;;;1.23;;
46675;SDS011;32412;51.478;5.694;2023-07-30T13:23:14;4.72;;;1.20;;
46675;SDS011;32412;51.478;5.694;2023-07-30T13:25:40;4.57;;;0.90;;
46675;SDS011;32412;51.478;5.694;2023-07-30T13:28:06;4.85;;;1.23;;
46675;SDS011;32412;51.478;5.694;2023-07-30T13:30:32;9.40;;;1.08;;
46675;SDS011;32412;51.478;5.694;2023-07-30T13:32:58;5.22;;;0.90;;
46675;SDS011;32412;51.478;5.694;2023-07-30T13:35:23;7.25;;;1.40;;
46675;SDS011;32412;51.478;5.694;2023-07-30T13:37:49;5.45;;;1.00;;
46675;SDS011;32412;51.478;5.694;2023-07-30T13:40:14;2.20;;;1.00;;
46675;SDS011;32412;51.478;5.694;2023-07-30T13:42:40;5.20;;;1.08;;
46675;SDS011;32412;51.478;5.694;2023-07-30T13:45:06;4.22;;;0.90;;
46675;SDS011;32412;51.478;5.694;2023-07-30T13:47:32;1.90;;;0.85;;
46675;SDS011;32412;51.478;5.694;2023-07-30T13:49:57;5.30;;;1.08;;
46675;SDS011;32412;51.478;5.694;2023-07-30T13:52:23;1.95;;;0.95;;
46675;SDS011;32412;51.478;5.694;2023-07-30T13:54:48;3.75;;;0.95;;
46675;SDS011;32412;51.478;5.694;2023-07-30T13:57:21;4.47;;;0.80;;
46675;SDS011;32412;51.478;5.694;2023-07-30T13:59:50;5.93;;;1.40;;
46675;SDS011;32412;51.478;5.694;2023-07-30T14:02:17;1.85;;;0.80;;
46675;SDS011;32412;51.478;5.694;2023-07-30T14:04:42;3.67;;;1.00;;
46675;SDS011;32412;51.478;5.694;2023-07-30T14:07:08;2.67;;;1.02;;
46675;SDS011;32412;51.478;5.694;2023-07-30T14:09:34;4.88;;;1.15;;
46675;SDS011;32412;51.478;5.694;2023-07-30T14:12:01;4.38;;;1.42;;
46675;SDS011;32412;51.478;5.694;2023-07-30T14:14:28;3.60;;;1.20;;
46675;SDS011;32412;51.478;5.694;2023-07-30T14:16:53;5.75;;;1.50;;
46675;SDS011;32412;51.478;5.694;2023-07-30T14:19:19;5.70;;;1.20;;
46675;SDS011;32412;51.478;5.694;2023-07-30T14:21:45;3.80;;;1.02;;
46675;SDS011;32412;51.478;5.694;2023-07-30T14:24:11;3.55;;;1.00;;
46675;SDS011;32412;51.478;5.694;2023-07-30T14:26:37;3.40;;;1.13;;
46675;SDS011;32412;51.478;5.694;2023-07-30T14:29:03;5.68;;;1.20;;
46675;SDS011;32412;51.478;5.694;2023-07-30T14:31:28;4.15;;;0.93;;
46675;SDS011;32412;51.478;5.694;2023-07-30T14:33:54;3.53;;;1.05;;
46675;SDS011;32412;51.478;5.694;2023-07-30T14:36:19;4.82;;;1.38;;
46675;SDS011;32412;51.478;5.694;2023-07-30T14:38:45;4.22;;;1.50;;
46675;SDS011;32412;51.478;5.694;2023-07-30T14:41:11;7.35;;;1.08;;
46675;SDS011;32412;51.478;5.694;2023-07-30T14:43:37;5.97;;;1.30;;
46675;SDS011;32412;51.478;5.694;2023-07-30T14:46:03;3.80;;;0.80;;